Time;durP1;ratioP1;P1;durP2;ratioP2;P2;SDS_P1;SDS_P2;PMS_P1;PMS_P2;Temp;Humidity;BMP_temperature;BMP_pressure;BME280_temperature;BME280_humidity;BME280_pressure;Samples;Min_cycle;Max_cycle;Signal;HPM_P1;HPM_P2
2022/01/14 00:01:38;;;;;;;16.73;5.55;;;7.40;99.90;;;;;;5114335;28;20408;-54
2022/01/14 00:04:04;;;;;;;21.33;5.90;;;7.40;99.90;;;;;;5111380;28;20456;-57
2022/01/14 00:06:29;;;;;;;18.57;5.50;;;7.30;99.90;;;;;;5111832;28;20384;-56
2022/01/14 00:09:03;;;;;;;16.60;5.40;;;7.30;99.90;;;;;;5111323;28;20391;-50
2022/01/14 00:11:30;;;;;;;16.00;5.47;;;7.30;99.90;;;;;;5111568;28;20384;-53
2022/01/14 00:16:32;;;;;;;17.05;6.13;;;7.40;99.90;;;;;;5113952;28;20431;-57
2022/01/14 00:18:58;;;;;;;17.08;5.90;;;7.40;99.90;;;;;;5113239;28;20467;-57
2022/01/14 00:21:24;;;;;;;17.97;5.47;;;7.30;99.90;;;;;;5113459;28;20436;-57
2022/01/14 00:23:53;;;;;;;17.05;5.80;;;7.40;99.90;;;;;;5114251;28;20479;-57
2022/01/14 00:33:34;;;;;;;20.98;6.20;;;7.30;99.90;;;;;;5111833;28;20503;-56
2022/01/14 00:36:01;;;;;;;19.27;6.03;;;7.30;99.90;;;;;;5112415;28;20385;-55
2022/01/14 00:38:34;;;;;;;17.17;5.30;;;7.30;99.90;;;;;;5112270;28;20379;-57
2022/01/14 00:41:01;;;;;;;15.85;5.80;;;7.30;99.90;;;;;;5112957;28;20777;-52
2022/01/14 00:43:26;;;;;;;18.60;6.20;;;7.20;99.90;;;;;;5112689;28;20388;-53
2022/01/14 00:45:55;;;;;;;16.97;6.10;;;7.30;99.90;;;;;;5108691;28;20522;-55
2022/01/14 00:48:22;;;;;;;14.93;5.70;;;7.20;99.90;;;;;;5091294;28;20405;-57
2022/01/14 00:50:48;;;;;;;16.48;5.72;;;7.30;99.90;;;;;;5091517;28;20481;-58
2022/01/14 00:53:14;;;;;;;21.90;6.27;;;7.20;99.90;;;;;;5090627;28;20474;-56
2022/01/14 00:56:07;;;;;;;17.13;5.90;;;7.20;99.90;;;;;;5090108;28;20398;-56
2022/01/14 01:01:16;;;;;;;18.83;6.05;;;7.20;99.90;;;;;;5092062;28;20394;-56
2022/01/14 01:03:42;;;;;;;19.23;5.80;;;7.20;99.90;;;;;;5091108;28;20403;-54
2022/01/14 01:06:10;;;;;;;21.03;5.83;;;7.20;99.90;;;;;;5091255;28;20407;-55
2022/01/14 01:08:37;;;;;;;14.63;5.10;;;7.20;99.90;;;;;;5092097;28;20382;-55
2022/01/14 01:11:06;;;;;;;14.23;4.90;;;7.20;99.90;;;;;;5090851;28;20406;-57
2022/01/14 01:13:36;;;;;;;18.20;5.78;;;7.10;99.90;;;;;;5091987;28;20448;-56
2022/01/14 01:16:03;;;;;;;19.25;6.00;;;7.10;99.90;;;;;;5090798;28;20387;-54
2022/01/14 01:18:30;;;;;;;15.82;5.47;;;7.10;99.90;;;;;;5091542;28;20383;-55
2022/01/14 01:20:56;;;;;;;16.80;5.72;;;7.20;99.90;;;;;;5090480;28;20417;-57
2022/01/14 01:23:23;;;;;;;18.47;6.33;;;7.10;99.90;;;;;;5091182;28;20387;-54
2022/01/14 01:25:57;;;;;;;21.80;6.40;;;7.20;99.90;;;;;;5089770;28;20383;-55
2022/01/14 01:28:24;;;;;;;17.33;6.18;;;7.10;99.90;;;;;;5091272;28;20398;-55
2022/01/14 01:33:22;;;;;;;19.75;5.45;;;7.10;99.90;;;;;;5092056;28;20437;-56
2022/01/14 01:35:48;;;;;;;15.82;5.38;;;7.10;99.90;;;;;;5091195;28;20425;-56
2022/01/14 01:38:16;;;;;;;14.38;5.82;;;7.20;99.90;;;;;;5081747;28;20426;-57
2022/01/14 01:40:45;;;;;;;14.45;5.13;;;7.20;99.90;;;;;;5074183;28;20387;-53
2022/01/14 01:43:12;;;;;;;12.20;5.15;;;7.20;99.90;;;;;;5090586;28;20759;-54
2022/01/14 01:45:37;;;;;;;16.92;5.28;;;7.10;99.90;;;;;;5091620;28;20379;-57
2022/01/14 01:48:03;;;;;;;13.55;4.82;;;7.10;99.90;;;;;;5075387;28;20475;-56
2022/01/14 01:50:32;;;;;;;12.60;4.60;;;7.10;99.90;;;;;;5091743;28;20427;-54
2022/01/14 01:52:58;;;;;;;13.88;5.15;;;7.10;99.90;;;;;;5090491;28;20384;-58
2022/01/14 01:55:24;;;;;;;15.50;5.15;;;7.20;99.90;;;;;;5091911;28;20399;-57
2022/01/14 01:57:50;;;;;;;14.32;4.72;;;7.20;99.90;;;;;;5059396;28;20383;-55
2022/01/14 02:00:20;;;;;;;14.48;4.90;;;7.20;99.90;;;;;;5092723;28;20384;-57
2022/01/14 02:02:48;;;;;;;15.32;4.55;;;7.20;99.90;;;;;;5076173;28;20536;-56
2022/01/14 02:05:15;;;;;;;16.40;5.40;;;7.20;99.90;;;;;;5056093;28;20772;-56
2022/01/14 02:07:40;;;;;;;11.40;4.28;;;7.20;99.90;;;;;;5057292;28;20412;-56
2022/01/14 02:10:07;;;;;;;12.50;4.43;;;7.20;99.90;;;;;;5076274;28;20395;-57
2022/01/14 02:12:39;;;;;;;12.90;4.38;;;7.20;99.90;;;;;;5057435;28;20474;-57
2022/01/14 02:15:13;;;;;;;12.85;4.40;;;7.20;99.90;;;;;;5057959;28;20387;-57
2022/01/14 02:23:03;;;;;;;12.52;4.47;;;7.20;99.90;;;;;;5075458;28;20506;-55
2022/01/14 02:25:29;;;;;;;14.38;4.78;;;7.10;99.90;;;;;;5092100;28;20491;-58
2022/01/14 02:28:07;;;;;;;14.43;4.53;;;7.10;99.90;;;;;;5059117;28;20499;-57
2022/01/14 02:30:41;;;;;;;13.07;4.07;;;7.20;99.90;;;;;;5075728;28;20395;-58
2022/01/14 02:33:09;;;;;;;10.77;4.35;;;7.20;99.90;;;;;;5076256;28;20391;-58
2022/01/14 02:35:36;;;;;;;11.80;4.38;;;7.20;99.90;;;;;;5057850;28;20427;-53
2022/01/14 02:38:02;;;;;;;11.57;4.15;;;7.20;99.90;;;;;;5074623;28;20391;-55
2022/01/14 02:40:29;;;;;;;16.13;4.30;;;7.20;99.90;;;;;;5074392;28;20788;-56
2022/01/14 02:42:58;;;;;;;14.20;3.95;;;7.20;99.90;;;;;;5057187;28;20388;-56
2022/01/14 02:45:32;;;;;;;12.77;4.18;;;7.20;99.90;;;;;;5075349;28;20775;-54
2022/01/14 02:47:58;;;;;;;17.80;4.25;;;7.10;99.90;;;;;;5057274;28;20739;-58
2022/01/14 02:50:25;;;;;;;18.27;5.05;;;7.10;99.90;;;;;;5056875;28;20471;-56
2022/01/14 02:55:19;;;;;;;16.10;4.60;;;7.10;99.90;;;;;;5075461;28;20384;-57
2022/01/14 02:57:50;;;;;;;13.07;4.25;;;7.10;99.90;;;;;;5075113;28;20391;-58
2022/01/14 03:00:18;;;;;;;13.45;4.43;;;7.20;99.90;;;;;;5089977;28;20384;-58
2022/01/14 03:02:47;;;;;;;16.27;4.50;;;7.10;99.90;;;;;;5090717;28;20467;-57
2022/01/14 03:05:14;;;;;;;15.10;4.40;;;7.10;99.90;;;;;;5056112;28;20391;-57
2022/01/14 03:07:41;;;;;;;15.30;4.35;;;7.20;99.90;;;;;;5088660;28;20959;-58
2022/01/14 03:10:09;;;;;;;15.00;4.57;;;7.20;99.90;;;;;;5055978;28;20379;-56
2022/01/14 03:12:35;;;;;;;15.65;4.65;;;7.20;99.90;;;;;;5089189;28;20390;-58
2022/01/14 03:15:01;;;;;;;15.98;4.60;;;7.20;99.90;;;;;;5073949;28;20391;-53
2022/01/14 03:17:28;;;;;;;12.67;4.50;;;7.20;99.90;;;;;;5088864;28;20380;-58
2022/01/14 03:19:54;;;;;;;15.57;4.88;;;7.20;99.90;;;;;;5073466;28;20775;-59
2022/01/14 03:22:28;;;;;;;14.85;4.90;;;7.20;99.90;;;;;;5091005;28;20404;-58
2022/01/14 03:27:20;;;;;;;18.13;5.00;;;7.20;99.90;;;;;;5075435;28;20526;-58
2022/01/14 03:29:46;;;;;;;18.90;5.35;;;7.20;99.90;;;;;;5057447;28;20392;-57
2022/01/14 03:32:12;;;;;;;16.75;4.80;;;7.20;99.90;;;;;;5057293;28;20730;-56
2022/01/14 03:34:37;;;;;;;10.95;4.38;;;7.20;99.90;;;;;;5089092;28;20566;-56
2022/01/14 03:37:04;;;;;;;14.23;4.88;;;7.20;99.90;;;;;;5088184;28;20468;-58
2022/01/14 03:39:29;;;;;;;13.93;4.72;;;7.20;99.90;;;;;;5055285;28;20399;-57
2022/01/14 03:41:55;;;;;;;16.40;4.83;;;7.20;99.90;;;;;;5055733;28;20391;-54
2022/01/14 03:44:22;;;;;;;15.18;5.07;;;7.30;99.90;;;;;;5056027;28;20511;-56
2022/01/14 03:46:47;;;;;;;17.58;4.78;;;7.30;99.90;;;;;;5072337;28;20550;-54
2022/01/14 03:49:14;;;;;;;15.13;4.15;;;7.30;99.90;;;;;;5089278;28;20680;-56
2022/01/14 03:51:39;;;;;;;15.93;4.78;;;7.30;99.90;;;;;;5089699;28;20399;-58
2022/01/14 03:54:05;;;;;;;13.50;4.70;;;7.20;99.90;;;;;;5073370;28;20387;-58
2022/01/14 03:56:31;;;;;;;17.48;5.22;;;7.20;99.90;;;;;;5090203;28;20490;-57
2022/01/14 03:58:57;;;;;;;14.45;4.72;;;7.20;99.90;;;;;;5074042;28;20467;-56
2022/01/14 04:01:23;;;;;;;17.90;5.13;;;7.20;99.90;;;;;;5056760;28;20388;-54
2022/01/14 04:03:49;;;;;;;18.13;5.20;;;7.20;99.90;;;;;;5088873;28;20672;-55
2022/01/14 04:06:16;;;;;;;19.40;5.07;;;7.20;99.90;;;;;;5056884;28;20492;-53
2022/01/14 04:08:43;;;;;;;18.45;5.07;;;7.30;99.90;;;;;;5055098;28;20526;-55
2022/01/14 04:11:09;;;;;;;14.90;5.15;;;7.30;99.90;;;;;;5055271;28;20502;-58
2022/01/14 04:13:45;;;;;;;15.30;4.93;;;7.30;99.90;;;;;;5054357;28;20384;-59
2022/01/14 04:16:11;;;;;;;18.02;5.57;;;7.30;99.90;;;;;;5089196;28;20482;-55
2022/01/14 04:18:36;;;;;;;15.05;5.22;;;7.30;99.90;;;;;;5087973;28;20652;-58
2022/01/14 04:21:02;;;;;;;17.25;5.63;;;7.20;99.90;;;;;;5072517;28;20677;-58
2022/01/14 04:23:28;;;;;;;14.27;5.32;;;7.20;99.90;;;;;;5089099;28;20396;-54
2022/01/14 04:25:54;;;;;;;17.33;5.47;;;7.20;99.90;;;;;;5053665;28;20440;-58
2022/01/14 04:28:25;;;;;;;17.73;4.93;;;7.20;99.90;;;;;;5052707;28;20800;-55
2022/01/14 04:30:54;;;;;;;16.63;5.15;;;7.30;99.90;;;;;;5055481;28;20384;-56
2022/01/14 04:33:25;;;;;;;19.17;5.82;;;7.30;99.90;;;;;;5055448;28;20459;-58
2022/01/14 04:35:54;;;;;;;12.75;4.72;;;7.20;99.90;;;;;;5072608;28;20383;-57
2022/01/14 04:38:20;;;;;;;16.13;5.28;;;7.20;99.90;;;;;;5090003;28;20687;-56
2022/01/14 04:40:45;;;;;;;14.85;5.05;;;7.30;99.90;;;;;;5056327;28;20387;-56
2022/01/14 04:43:13;;;;;;;16.17;5.40;;;7.30;99.90;;;;;;5090017;28;20668;-54
2022/01/14 04:48:06;;;;;;;17.33;4.88;;;7.30;99.90;;;;;;5073657;28;20407;-58
2022/01/14 04:50:32;;;;;;;17.63;5.80;;;7.30;99.90;;;;;;5089282;28;20387;-58
2022/01/14 04:52:58;;;;;;;16.35;5.72;;;7.20;99.90;;;;;;5088263;28;20376;-58
2022/01/14 04:55:26;;;;;;;14.65;5.13;;;7.30;99.90;;;;;;5052904;28;20668;-57
2022/01/14 04:57:54;;;;;;;13.35;4.85;;;7.30;99.90;;;;;;5069694;28;20436;-56
2022/01/14 05:00:25;;;;;;;18.77;5.85;;;7.20;99.90;;;;;;5052459;28;20464;-57
2022/01/14 05:02:53;;;;;;;18.77;5.60;;;7.20;99.90;;;;;;5071367;28;20461;-58
2022/01/14 05:05:21;;;;;;;12.53;5.33;;;7.20;99.90;;;;;;5072480;28;20392;-56
2022/01/14 05:07:49;;;;;;;14.07;5.05;;;7.20;99.90;;;;;;5090243;28;20467;-56
2022/01/14 05:10:25;;;;;;;16.17;5.15;;;7.20;99.90;;;;;;5073412;28;20451;-58
2022/01/14 05:12:51;;;;;;;16.85;5.30;;;7.20;99.90;;;;;;5074809;28;20461;-58
2022/01/14 05:15:18;;;;;;;14.47;4.87;;;7.20;99.90;;;;;;5078303;28;20481;-58
2022/01/14 05:17:44;;;;;;;14.48;4.75;;;7.20;99.90;;;;;;5078321;28;20409;-59
2022/01/14 05:20:10;;;;;;;17.42;4.78;;;7.20;99.90;;;;;;5077072;28;20596;-59
2022/01/14 05:22:36;;;;;;;17.63;4.93;;;7.20;99.90;;;;;;5076792;28;20450;-55
2022/01/14 05:25:02;;;;;;;16.27;4.43;;;7.20;99.90;;;;;;5093781;28;20397;-55
2022/01/14 05:27:28;;;;;;;15.68;4.60;;;7.20;99.90;;;;;;5057608;28;20510;-57
2022/01/14 05:29:53;;;;;;;17.60;4.77;;;7.20;99.90;;;;;;5086805;28;20421;-57
2022/01/14 05:32:20;;;;;;;19.03;4.13;;;7.20;99.90;;;;;;5047603;28;20398;-57
2022/01/14 05:34:46;;;;;;;14.00;4.55;;;7.30;99.90;;;;;;5053873;28;20669;-56
2022/01/14 05:37:12;;;;;;;12.07;4.53;;;7.30;99.90;;;;;;5045212;28;20825;-56
2022/01/14 05:39:39;;;;;;;18.63;5.13;;;7.30;99.90;;;;;;5052750;28;20817;-58
2022/01/14 05:42:05;;;;;;;16.17;4.65;;;7.30;99.90;;;;;;5050821;28;20389;-57
2022/01/14 05:44:32;;;;;;;11.80;4.05;;;7.20;99.90;;;;;;5046544;28;20393;-57
2022/01/14 05:46:59;;;;;;;15.73;4.45;;;7.20;99.90;;;;;;5033150;28;20459;-56
2022/01/14 05:49:25;;;;;;;15.82;4.13;;;7.20;99.90;;;;;;5049814;28;20381;-57
2022/01/14 05:51:51;;;;;;;16.65;4.47;;;7.20;99.90;;;;;;5081015;28;20710;-56
2022/01/14 05:54:18;;;;;;;14.32;4.28;;;7.20;99.90;;;;;;5042039;28;20762;-54
2022/01/14 05:56:45;;;;;;;15.98;4.03;;;7.20;99.90;;;;;;5082260;28;20396;-58
2022/01/14 05:59:11;;;;;;;15.20;3.90;;;7.20;99.90;;;;;;5043138;28;20665;-58
2022/01/14 06:01:37;;;;;;;18.42;4.47;;;7.20;99.90;;;;;;5084686;28;20397;-59
2022/01/14 06:04:04;;;;;;;17.17;4.33;;;7.20;99.90;;;;;;5051955;28;20471;-56
2022/01/14 06:06:30;;;;;;;13.50;4.07;;;7.20;99.90;;;;;;5046083;28;20894;-55
2022/01/14 06:08:56;;;;;;;13.88;4.18;;;7.20;99.90;;;;;;5084244;28;20479;-59
2022/01/14 06:11:22;;;;;;;21.63;4.78;;;7.20;99.90;;;;;;5050009;28;20480;-58
2022/01/14 06:13:47;;;;;;;16.15;4.15;;;7.20;99.90;;;;;;5046665;28;20647;-56
2022/01/14 06:16:14;;;;;;;13.47;3.93;;;7.20;99.90;;;;;;5042383;28;20478;-56
2022/01/14 06:18:40;;;;;;;13.25;3.53;;;7.20;99.90;;;;;;5082132;28;20402;-56
2022/01/14 06:21:07;;;;;;;18.17;4.13;;;7.20;99.90;;;;;;5050074;28;20717;-54
2022/01/14 06:23:33;;;;;;;18.73;4.60;;;7.10;99.90;;;;;;5045382;28;20389;-53
2022/01/14 06:25:58;;;;;;;13.90;3.97;;;7.10;99.90;;;;;;5047403;28;20410;-54
2022/01/14 06:28:24;;;;;;;18.57;4.20;;;7.10;99.90;;;;;;5073157;28;20405;-58
2022/01/14 06:30:50;;;;;;;14.88;4.30;;;7.10;99.90;;;;;;5072647;28;20370;-56
2022/01/14 06:33:16;;;;;;;15.87;4.20;;;7.00;99.90;;;;;;5090785;28;20935;-57
2022/01/14 06:35:42;;;;;;;15.77;3.90;;;7.00;99.90;;;;;;5074579;28;20389;-56
2022/01/14 06:38:08;;;;;;;17.67;4.00;;;7.00;99.90;;;;;;5075904;28;20378;-56
2022/01/14 06:40:33;;;;;;;16.33;4.43;;;7.10;99.90;;;;;;5074608;28;20386;-55
2022/01/14 06:42:59;;;;;;;16.85;4.00;;;7.00;99.90;;;;;;5072953;28;20388;-57
2022/01/14 06:45:25;;;;;;;15.05;3.65;;;7.00;99.90;;;;;;5090005;28;20662;-56
2022/01/14 06:47:51;;;;;;;14.52;3.70;;;7.10;99.90;;;;;;5072465;28;20390;-56
2022/01/14 06:50:17;;;;;;;16.77;4.32;;;7.10;99.90;;;;;;5073493;28;20936;-55
2022/01/14 06:52:43;;;;;;;18.90;4.30;;;7.10;99.90;;;;;;5073454;28;20410;-57
2022/01/14 06:55:09;;;;;;;23.37;5.10;;;7.10;99.90;;;;;;5072948;28;20561;-55
2022/01/14 06:57:35;;;;;;;19.80;4.78;;;7.10;99.90;;;;;;5072866;28;21073;-56
2022/01/14 07:00:07;;;;;;;18.42;4.22;;;7.00;99.90;;;;;;5071836;28;20554;-54
2022/01/14 07:02:33;;;;;;;16.75;4.40;;;7.00;99.90;;;;;;5090691;28;20374;-56
2022/01/14 07:04:58;;;;;;;19.17;4.53;;;7.00;99.90;;;;;;5092070;28;20385;-52
2022/01/14 07:07:24;;;;;;;23.47;5.07;;;7.10;99.90;;;;;;5073705;28;20442;-58
2022/01/14 07:09:58;;;;;;;21.00;4.93;;;7.10;99.90;;;;;;5074189;28;20390;-56
2022/01/14 07:12:25;;;;;;;15.15;4.03;;;7.00;99.90;;;;;;5070410;28;20553;-57
2022/01/14 07:14:52;;;;;;;18.92;4.80;;;7.00;99.90;;;;;;5071660;28;20382;-57
2022/01/14 07:17:18;;;;;;;19.38;5.18;;;7.00;99.90;;;;;;5103469;28;21092;-56
2022/01/14 07:19:43;;;;;;;19.77;4.97;;;7.10;99.90;;;;;;5087583;28;20481;-52
2022/01/14 07:22:09;;;;;;;20.50;4.18;;;7.10;99.90;;;;;;5069759;28;20423;-53
2022/01/14 07:24:36;;;;;;;15.97;4.53;;;7.10;99.90;;;;;;5068590;28;20400;-57
2022/01/14 07:27:02;;;;;;;20.40;4.50;;;7.10;99.90;;;;;;5054346;28;20409;-53
2022/01/14 07:29:27;;;;;;;17.02;4.80;;;7.10;99.90;;;;;;5081515;28;20451;-55
2022/01/14 07:31:53;;;;;;;22.37;4.97;;;7.10;99.90;;;;;;5080822;28;20397;-54
2022/01/14 07:34:18;;;;;;;21.37;4.50;;;7.10;99.90;;;;;;5041821;28;20480;-57
2022/01/14 07:36:44;;;;;;;17.40;4.40;;;7.10;99.90;;;;;;5046643;28;20404;-54
2022/01/14 07:39:09;;;;;;;18.77;5.03;;;7.10;99.90;;;;;;5042113;28;20755;-53
2022/01/14 07:41:35;;;;;;;21.07;5.00;;;7.10;99.90;;;;;;5082708;28;20389;-57
2022/01/14 07:44:03;;;;;;;17.08;4.53;;;7.10;99.90;;;;;;5041433;28;20390;-56
2022/01/14 07:46:30;;;;;;;18.92;4.63;;;7.10;99.90;;;;;;5053419;28;20433;-56
2022/01/14 07:48:56;;;;;;;21.52;4.82;;;7.10;99.90;;;;;;5053462;28;20389;-53
2022/01/14 07:51:22;;;;;;;23.50;5.10;;;7.10;99.90;;;;;;5046005;28;20405;-53
2022/01/14 07:53:47;;;;;;;21.23;5.00;;;7.00;99.90;;;;;;5050342;28;20386;-57
2022/01/14 07:56:13;;;;;;;21.83;5.27;;;7.00;99.90;;;;;;5042080;28;20427;-52
2022/01/14 07:58:40;;;;;;;18.63;5.50;;;7.00;99.90;;;;;;5082871;28;20472;-57
2022/01/14 08:01:06;;;;;;;25.33;4.70;;;7.10;99.90;;;;;;5042126;28;20390;-56
2022/01/14 08:03:31;;;;;;;22.60;5.30;;;7.00;99.90;;;;;;5051080;28;20655;-55
2022/01/14 08:05:58;;;;;;;24.33;5.20;;;7.10;99.90;;;;;;5052607;28;21001;-54
2022/01/14 08:08:24;;;;;;;24.92;4.82;;;7.00;99.90;;;;;;5053942;28;20466;-57
2022/01/14 08:10:50;;;;;;;21.75;5.28;;;7.10;99.90;;;;;;5086691;28;20788;-56
2022/01/14 08:13:15;;;;;;;22.27;5.32;;;7.10;99.90;;;;;;5052547;28;20401;-58
2022/01/14 08:15:41;;;;;;;17.75;5.30;;;7.00;99.90;;;;;;5049503;28;20393;-55
2022/01/14 08:18:07;;;;;;;24.42;4.88;;;7.00;99.90;;;;;;5042747;28;20443;-53
2022/01/14 08:20:33;;;;;;;28.02;5.93;;;7.10;99.90;;;;;;5083093;28;20389;-58
2022/01/14 08:22:59;;;;;;;25.97;5.63;;;7.10;99.90;;;;;;5047956;28;20462;-57
2022/01/14 08:25:26;;;;;;;24.98;5.50;;;7.10;99.90;;;;;;5043071;28;20385;-58
2022/01/14 08:27:51;;;;;;;20.27;5.13;;;7.10;99.90;;;;;;5081927;28;20566;-55
2022/01/14 08:30:17;;;;;;;21.55;5.30;;;7.10;99.90;;;;;;5042442;28;20774;-56
2022/01/14 08:32:43;;;;;;;21.27;5.50;;;7.10;99.90;;;;;;5080985;28;20386;-58
2022/01/14 08:35:09;;;;;;;29.73;6.28;;;7.10;99.90;;;;;;5039619;28;20629;-55
2022/01/14 08:37:37;;;;;;;22.70;4.93;;;7.10;99.90;;;;;;5078903;28;20440;-56
2022/01/14 08:40:04;;;;;;;25.88;5.35;;;7.10;99.90;;;;;;5035851;28;20855;-58
2022/01/14 08:42:29;;;;;;;22.55;5.28;;;7.10;99.90;;;;;;5078432;28;20401;-57
2022/01/14 08:44:54;;;;;;;23.25;5.57;;;7.10;99.90;;;;;;5079916;28;20410;-56
2022/01/14 08:47:20;;;;;;;23.77;5.03;;;7.10;99.90;;;;;;5041737;28;20441;-56
2022/01/14 08:49:46;;;;;;;25.13;5.17;;;7.10;99.90;;;;;;5050376;28;20377;-58
2022/01/14 08:52:12;;;;;;;26.73;5.77;;;7.10;99.90;;;;;;5043667;28;20462;-58
2022/01/14 08:54:38;;;;;;;23.42;4.90;;;7.10;99.90;;;;;;5084292;28;20865;-55
2022/01/14 08:57:04;;;;;;;19.83;5.15;;;7.10;99.90;;;;;;5051338;28;20476;-58
2022/01/14 08:59:31;;;;;;;22.63;5.35;;;7.10;99.90;;;;;;5047206;28;20946;-54
2022/01/14 09:01:58;;;;;;;24.92;5.88;;;7.10;99.90;;;;;;5054344;28;20425;-57
2022/01/14 09:04:24;;;;;;;23.50;5.53;;;7.10;99.90;;;;;;5051139;28;20860;-53
2022/01/14 09:06:49;;;;;;;28.27;6.00;;;7.00;99.90;;;;;;5087112;28;20424;-57
2022/01/14 09:09:15;;;;;;;25.03;7.10;;;7.00;99.90;;;;;;5045836;28;20393;-56
2022/01/14 09:11:41;;;;;;;26.63;6.03;;;7.00;99.90;;;;;;5084923;28;20393;-57
2022/01/14 09:14:06;;;;;;;26.00;6.07;;;7.00;99.90;;;;;;5043031;28;20721;-59
2022/01/14 09:16:33;;;;;;;19.30;5.27;;;7.00;99.90;;;;;;5050380;28;20405;-58
2022/01/14 09:18:58;;;;;;;30.52;6.18;;;7.00;99.90;;;;;;5044484;28;20481;-56
2022/01/14 09:21:24;;;;;;;26.77;6.53;;;7.00;99.90;;;;;;5045839;28;20483;-51
2022/01/14 09:24:03;;;;;;;22.60;6.53;;;7.00;99.90;;;;;;5084532;28;20428;-55
2022/01/14 09:26:29;;;;;;;33.03;7.47;;;7.00;99.90;;;;;;5048177;28;20574;-52
2022/01/14 09:28:54;;;;;;;26.15;6.43;;;7.00;99.90;;;;;;5052947;28;20708;-58
2022/01/14 09:31:20;;;;;;;21.27;5.97;;;7.00;99.90;;;;;;5046193;28;20828;-58
2022/01/14 09:33:45;;;;;;;25.55;6.80;;;7.00;99.90;;;;;;5083008;28;20565;-56
2022/01/14 09:36:11;;;;;;;22.67;6.10;;;7.00;99.90;;;;;;5049512;28;20385;-55
2022/01/14 09:38:37;;;;;;;27.30;6.97;;;7.00;99.90;;;;;;5048322;28;20454;-58
2022/01/14 09:41:05;;;;;;;24.70;6.87;;;7.00;99.90;;;;;;5039807;28;20722;-53
2022/01/14 09:43:36;;;;;;;21.02;7.07;;;7.00;99.90;;;;;;5081409;28;20681;-56
2022/01/14 09:46:03;;;;;;;23.90;7.68;;;7.00;99.90;;;;;;5039821;28;20646;-57
2022/01/14 09:48:29;;;;;;;29.58;8.05;;;6.90;99.90;;;;;;5044757;28;20480;-57
2022/01/14 09:50:55;;;;;;;27.47;7.47;;;7.00;99.90;;;;;;5082170;28;20698;-55
2022/01/14 09:53:21;;;;;;;26.58;7.65;;;6.90;99.90;;;;;;5078855;28;20388;-57
2022/01/14 09:55:49;;;;;;;28.08;7.63;;;7.00;99.90;;;;;;5088399;28;20390;-57
2022/01/14 09:58:15;;;;;;;22.57;6.87;;;6.90;99.90;;;;;;5048914;28;20674;-58
2022/01/14 10:00:43;;;;;;;21.65;7.05;;;7.00;99.90;;;;;;5055387;28;20399;-54
2022/01/14 10:03:22;;;;;;;22.33;7.18;;;7.00;99.90;;;;;;5047929;28;20732;-56
2022/01/14 10:05:51;;;;;;;20.88;6.60;;;7.00;99.90;;;;;;5054866;28;20483;-57
2022/01/14 10:08:23;;;;;;;16.75;6.25;;;6.90;99.90;;;;;;5049047;28;20891;-57
2022/01/14 10:10:51;;;;;;;24.90;7.40;;;6.90;99.90;;;;;;5088396;28;20446;-56
2022/01/14 10:13:20;;;;;;;22.50;6.90;;;7.00;99.90;;;;;;5048774;28;20678;-57
2022/01/14 10:15:50;;;;;;;24.73;6.40;;;6.90;99.90;;;;;;5054864;28;20797;-56
2022/01/14 10:18:23;;;;;;;22.38;6.35;;;7.00;99.90;;;;;;5048304;28;20401;-58
2022/01/14 10:20:51;;;;;;;17.48;5.50;;;7.20;99.90;;;;;;5086271;28;20429;-57
2022/01/14 10:23:45;;;;;;;20.33;6.03;;;7.10;99.90;;;;;;5054927;28;20390;-56
2022/01/14 10:26:14;;;;;;;23.80;5.70;;;7.10;99.90;;;;;;5030554;28;20441;-57
2022/01/14 10:28:56;;;;;;;19.30;6.10;;;7.10;99.90;;;;;;5068212;28;20398;-57
2022/01/14 10:31:33;;;;;;;19.75;6.05;;;7.10;99.90;;;;;;5052080;28;20726;-56
2022/01/14 10:34:12;;;;;;;16.35;5.90;;;7.00;99.90;;;;;;5043182;28;20514;-57
2022/01/14 10:36:38;;;;;;;18.17;6.13;;;7.10;99.90;;;;;;5052376;28;20468;-53
2022/01/14 10:39:18;;;;;;;16.30;5.37;;;7.10;99.90;;;;;;5051812;28;21178;-56
2022/01/14 10:41:45;;;;;;;18.92;5.18;;;7.10;99.90;;;;;;5068198;28;20453;-57
2022/01/14 10:44:30;;;;;;;14.57;4.90;;;7.10;99.90;;;;;;5074627;28;20382;-57
2022/01/14 10:47:19;;;;;;;14.32;5.18;;;7.10;99.90;;;;;;5072699;28;21148;-57
2022/01/14 10:49:47;;;;;;;15.32;5.20;;;7.10;99.90;;;;;;5068684;28;21001;-56
2022/01/14 10:52:14;;;;;;;14.70;4.82;;;7.10;99.90;;;;;;5087279;28;20507;-57
2022/01/14 10:54:48;;;;;;;14.53;5.23;;;7.10;99.90;;;;;;5068902;28;20417;-56
2022/01/14 10:57:15;;;;;;;11.93;4.55;;;7.10;99.90;;;;;;5089922;28;20862;-53
2022/01/14 10:59:41;;;;;;;10.95;4.60;;;7.10;99.90;;;;;;5071777;28;20386;-55
2022/01/14 11:02:39;;;;;;;15.50;4.77;;;7.00;99.90;;;;;;5072149;28;20386;-53
2022/01/14 11:05:15;;;;;;;9.73;4.18;;;7.10;99.90;;;;;;5072821;28;20373;-57
2022/01/14 11:07:42;;;;;;;10.75;4.05;;;7.10;99.90;;;;;;5072713;28;20394;-56
2022/01/14 11:10:22;;;;;;;10.70;3.70;;;7.10;99.90;;;;;;5070960;28;20386;-55
2022/01/14 11:12:48;;;;;;;10.93;4.00;;;7.10;99.90;;;;;;5071613;28;20484;-55
2022/01/14 11:15:15;;;;;;;13.85;4.00;;;7.10;99.90;;;;;;5089884;28;20418;-55
2022/01/14 11:17:43;;;;;;;11.10;3.70;;;7.10;99.90;;;;;;5071963;28;20382;-55
2022/01/14 11:20:12;;;;;;;10.38;3.63;;;7.10;99.90;;;;;;5088832;28;20561;-52
2022/01/14 11:25:26;;;;;;;11.75;4.32;;;7.10;99.90;;;;;;5089245;28;20392;-53
2022/01/14 11:27:57;;;;;;;13.75;3.75;;;7.10;99.90;;;;;;5070920;28;21041;-57
2022/01/14 11:30:38;;;;;;;10.90;3.22;;;7.10;99.90;;;;;;5070154;28;20398;-57
2022/01/14 11:33:10;;;;;;;9.68;3.22;;;7.10;99.90;;;;;;5069649;28;20439;-56
2022/01/14 11:35:39;;;;;;;8.15;3.13;;;7.20;99.90;;;;;;5068955;28;20840;-57
2022/01/14 11:38:54;;;;;;;12.52;3.72;;;7.20;99.90;;;;;;5069239;28;20797;-57
2022/01/14 11:41:53;;;;;;;7.90;3.22;;;7.20;99.90;;;;;;5050786;28;21135;-55
2022/01/14 11:44:58;;;;;;;10.07;3.40;;;7.20;99.90;;;;;;5081277;28;20392;-57
2022/01/14 11:47:28;;;;;;;7.28;2.88;;;7.30;99.90;;;;;;5040060;28;20500;-56
2022/01/14 11:50:01;;;;;;;10.80;3.28;;;7.30;99.90;;;;;;5067178;28;20537;-53
2022/01/14 11:52:42;;;;;;;8.25;2.95;;;7.30;99.90;;;;;;5066908;28;20498;-55
2022/01/14 11:55:30;;;;;;;7.88;2.88;;;7.30;99.90;;;;;;5071527;28;20472;-56
2022/01/14 11:58:24;;;;;;;8.13;2.75;;;7.30;99.90;;;;;;5090878;28;20493;-56
2022/01/14 12:01:04;;;;;;;8.32;2.58;;;7.40;99.90;;;;;;5075469;28;20374;-56
2022/01/14 12:03:34;;;;;;;7.43;2.85;;;7.30;99.90;;;;;;5074785;28;20386;-56
2022/01/14 12:06:07;;;;;;;7.38;2.83;;;7.30;99.90;;;;;;5092151;28;20374;-53
2022/01/14 12:08:42;;;;;;;4.75;2.10;;;7.30;99.90;;;;;;5073986;28;20484;-55
2022/01/14 12:11:14;;;;;;;8.05;3.00;;;7.30;99.90;;;;;;5072889;28;20394;-55
2022/01/14 12:14:05;;;;;;;4.93;2.00;;;7.30;99.90;;;;;;5073511;28;20378;-53
2022/01/14 12:17:00;;;;;;;6.40;2.30;;;7.40;99.90;;;;;;5073270;28;20410;-53
2022/01/14 12:19:28;;;;;;;6.10;2.30;;;7.40;99.90;;;;;;5089520;28;20390;-55
2022/01/14 12:21:54;;;;;;;5.23;2.10;;;7.40;99.90;;;;;;5089296;28;20432;-51
2022/01/14 12:24:27;;;;;;;6.72;2.40;;;7.40;99.90;;;;;;5090363;28;20398;-53
2022/01/14 12:27:07;;;;;;;4.13;2.30;;;7.40;99.90;;;;;;5072041;28;20408;-55
2022/01/14 12:29:50;;;;;;;6.13;2.83;;;7.40;99.90;;;;;;5091081;28;20377;-51
2022/01/14 12:32:31;;;;;;;4.40;2.30;;;7.40;99.90;;;;;;5090058;28;20392;-52
2022/01/14 12:35:09;;;;;;;7.00;2.40;;;7.40;99.90;;;;;;5071143;28;20803;-55
2022/01/14 12:37:41;;;;;;;4.82;2.35;;;7.40;99.90;;;;;;5070889;28;20386;-54
2022/01/14 12:40:16;;;;;;;6.05;2.38;;;7.50;99.90;;;;;;5070868;28;20685;-55
2022/01/14 12:42:53;;;;;;;4.53;2.13;;;7.40;99.90;;;;;;5089070;28;21015;-52
2022/01/14 12:45:27;;;;;;;4.35;2.30;;;7.50;99.90;;;;;;5054482;28;20404;-55
2022/01/14 12:48:30;;;;;;;4.65;2.30;;;7.50;99.90;;;;;;5071149;28;20413;-56
2022/01/14 12:51:12;;;;;;;4.68;2.20;;;7.50;99.90;;;;;;5089555;28;20370;-56
2022/01/14 12:53:51;;;;;;;5.07;2.70;;;7.60;99.90;;;;;;5072374;28;20409;-56
2022/01/14 12:56:23;;;;;;;2.55;1.80;;;7.70;99.90;;;;;;5071801;28;20849;-55
2022/01/14 12:58:55;;;;;;;3.15;2.20;;;7.70;99.90;;;;;;5072832;28;20470;-55
2022/01/14 13:01:34;;;;;;;4.10;2.28;;;7.80;99.90;;;;;;5073548;28;20490;-57
2022/01/14 13:04:12;;;;;;;3.67;2.30;;;7.80;99.90;;;;;;5072681;28;20392;-53
2022/01/14 13:06:58;;;;;;;4.40;2.30;;;7.90;99.90;;;;;;5073370;28;20429;-55
2022/01/14 13:09:32;;;;;;;4.60;2.47;;;7.90;99.90;;;;;;5073620;28;20799;-56
2022/01/14 13:12:16;;;;;;;5.70;2.80;;;7.90;99.90;;;;;;5089790;28;20975;-57
2022/01/14 13:14:47;;;;;;;4.80;2.35;;;7.90;99.90;;;;;;5073518;28;20408;-59
2022/01/14 13:17:24;;;;;;;5.07;2.70;;;7.80;99.90;;;;;;5071115;28;20962;-56
2022/01/14 13:20:14;;;;;;;5.88;2.65;;;7.80;99.90;;;;;;5072923;28;20386;-55
2022/01/14 13:22:45;;;;;;;6.82;2.63;;;7.80;99.90;;;;;;5073856;28;20394;-54
2022/01/14 13:25:22;;;;;;;4.90;2.67;;;7.80;99.90;;;;;;5071846;28;20385;-54
2022/01/14 13:27:59;;;;;;;3.20;2.30;;;7.80;99.90;;;;;;5072199;28;20418;-54
2022/01/14 13:30:46;;;;;;;5.18;2.45;;;7.80;99.90;;;;;;5072338;28;20397;-52